Time;durP1;ratioP1;P1;durP2;ratioP2;P2;SDS_P1;SDS_P2;PMS_P1;PMS_P2;Temp;Humidity;BMP_temperature;BMP_pressure;BME280_temperature;BME280_humidity;BME280_pressure;Samples;Min_cycle;Max_cycle;Signal;HPM_P1;HPM_P2
2020/12/18 00:01:27;;;;;;;21.50;16.23;;;;;;;11.18;54.81;100989.27;1817850;77;21143;-66
2020/12/18 00:03:55;;;;;;;19.57;15.40;;;;;;;11.16;54.82;100991.23;1784362;77;21172;-67
2020/12/18 00:06:23;;;;;;;22.42;17.05;;;;;;;11.15;54.80;100993.06;1781847;78;21134;-65
2020/12/18 00:08:50;;;;;;;20.17;16.00;;;;;;;11.15;54.80;100994.89;1776166;78;21183;-67
2020/12/18 00:11:24;;;;;;;23.18;16.75;;;;;;;11.14;54.78;100995.86;1778287;79;21378;-66
2020/12/18 00:13:52;;;;;;;22.45;17.12;;;;;;;11.14;54.78;100994.03;1762288;80;21568;-66
2020/12/18 00:16:20;;;;;;;23.05;16.93;;;;;;;11.14;54.78;100990.04;1786542;80;21587;-65
2020/12/18 00:18:48;;;;;;;21.80;16.75;;;;;;;11.14;54.78;100990.54;1790415;80;21138;-65
2020/12/18 00:21:21;;;;;;;19.67;15.58;;;;;;;11.13;54.77;100991.03;1770974;80;21169;-67
2020/12/18 00:23:50;;;;;;;22.00;16.45;;;;;;;11.13;54.75;100991.03;1769796;80;22181;-67
2020/12/18 00:26:18;;;;;;;23.32;17.85;;;;;;;11.13;54.75;100985.72;1788602;79;21929;-67
2020/12/18 00:28:45;;;;;;;22.52;16.62;;;;;;;11.13;54.71;100987.05;1787351;79;21143;-69
2020/12/18 00:31:14;;;;;;;22.48;16.97;;;;;;;11.12;54.73;100987.18;1795216;79;21432;-68
2020/12/18 00:33:41;;;;;;;23.90;18.00;;;;;;;11.12;54.70;100985.85;1810065;78;21163;-67
2020/12/18 00:36:11;;;;;;;23.73;17.85;;;;;;;11.11;54.69;100983.69;1788163;79;21374;-66
2020/12/18 00:38:40;;;;;;;22.35;16.42;;;;;;;11.12;54.70;100981.86;1794825;79;21178;-68
2020/12/18 00:41:07;;;;;;;20.48;16.50;;;;;;;11.11;54.67;100982.86;1769474;79;21580;-67
2020/12/18 00:43:35;;;;;;;22.77;17.67;;;;;;;11.11;54.67;100983.69;1769027;80;21173;-67
2020/12/18 00:46:04;;;;;;;23.15;17.65;;;;;;;11.11;54.69;100988.18;1784620;80;21182;-68
2020/12/18 00:48:32;;;;;;;22.82;17.27;;;;;;;11.10;54.66;100987.81;1768159;80;21376;-68
2020/12/18 00:51:01;;;;;;;24.85;17.77;;;;;;;11.10;54.67;100983.33;1759428;80;21155;-67
2020/12/18 00:53:29;;;;;;;25.12;18.57;;;;;;;11.08;54.69;100977.31;1792326;79;21146;-65
2020/12/18 00:55:57;;;;;;;23.40;17.90;;;;;;;11.09;54.65;100975.52;1774259;80;21186;-67
2020/12/18 00:58:26;;;;;;;25.35;18.57;;;;;;;11.09;54.66;100974.19;1771622;79;21229;-66
2020/12/18 01:00:53;;;;;;;22.85;17.25;;;;;;;11.08;54.67;100968.00;1776091;79;23513;-65
2020/12/18 01:03:22;;;;;;;22.65;17.20;;;;;;;11.08;54.64;100969.83;1796289;78;21135;-65
2020/12/18 01:05:49;;;;;;;22.58;17.92;;;;;;;11.08;54.64;100968.00;1796769;79;21160;-67
2020/12/18 01:08:17;;;;;;;23.15;17.27;;;;;;;11.07;54.61;100958.36;1806225;79;21118;-68
2020/12/18 01:10:45;;;;;;;25.45;18.57;;;;;;;11.08;54.60;100960.02;1808233;77;21191;-66
2020/12/18 01:13:13;;;;;;;23.20;18.37;;;;;;;11.06;54.61;100952.69;1794629;79;21477;-66
2020/12/18 01:15:41;;;;;;;24.18;17.48;;;;;;;11.07;54.60;100958.83;1756496;80;21203;-66
2020/12/18 01:18:10;;;;;;;23.18;16.97;;;;;;;11.06;54.61;100961.98;1776288;79;21176;-66
2020/12/18 01:20:39;;;;;;;24.23;18.07;;;;;;;11.06;54.60;100961.16;1768685;79;21178;-66
2020/12/18 01:23:06;;;;;;;22.27;17.80;;;;;;;11.06;54.60;100955.84;1761005;79;21107;-65
2020/12/18 01:25:34;;;;;;;22.95;17.65;;;;;;;11.06;54.61;100959.83;1753990;79;21188;-66
2020/12/18 01:28:02;;;;;;;24.43;17.87;;;;;;;11.05;54.60;100948.36;1795645;79;21148;-66
2020/12/18 01:30:29;;;;;;;23.45;17.45;;;;;;;11.05;54.57;100954.15;1781355;80;21151;-65
2020/12/18 01:32:57;;;;;;;21.68;16.90;;;;;;;11.05;54.59;100958.13;1787822;79;21148;-65
2020/12/18 01:35:24;;;;;;;23.67;17.95;;;;;;;11.05;54.59;100957.67;1761557;79;21147;-65
2020/12/18 01:37:53;;;;;;;21.20;17.52;;;;;;;11.05;54.56;100954.15;1786917;79;22368;-65
2020/12/18 01:40:22;;;;;;;22.30;16.65;;;;;;;11.03;54.56;100952.98;1778027;79;21607;-65
2020/12/18 01:42:49;;;;;;;21.55;16.52;;;;;;;11.03;54.57;100954.31;1783759;79;21194;-66
2020/12/18 01:45:17;;;;;;;21.70;16.52;;;;;;;11.03;54.56;100952.98;1774199;79;21178;-65
2020/12/18 01:47:57;;;;;;;23.05;16.80;;;;;;;11.06;54.59;100947.86;1807745;79;29169;-65
2020/12/18 01:50:25;;;;;;;24.55;17.65;;;;;;;11.01;54.57;100949.13;1773922;79;21156;-64
2020/12/18 01:52:54;;;;;;;21.55;16.32;;;;;;;11.01;54.57;100949.13;1794864;79;21383;-65
2020/12/18 01:55:23;;;;;;;20.23;15.45;;;;;;;11.00;54.56;100954.09;1791439;79;21199;-64
2020/12/18 01:57:50;;;;;;;21.65;16.57;;;;;;;11.00;54.56;100951.92;1776042;79;21143;-65
2020/12/18 02:00:18;;;;;;;19.35;15.78;;;;;;;10.98;54.57;100948.07;1744429;80;21163;-66
2020/12/18 02:02:47;;;;;;;21.27;17.12;;;;;;;10.98;54.55;100955.22;1787570;79;21136;-66
2020/12/18 02:05:27;;;;;;;24.05;17.35;;;;;;;11.01;54.57;100941.66;1762735;79;28227;-66
2020/12/18 02:08:02;;;;;;;19.07;15.13;;;;;;;10.96;54.55;100946.55;1732427;82;21009;-65
2020/12/18 02:10:49;;;;;;;20.43;14.95;;;;;;;10.98;54.55;100947.24;1810552;79;28182;-65
2020/12/18 02:13:17;;;;;;;21.10;16.07;;;;;;;10.94;54.55;100943.19;1781512;80;21154;-66
2020/12/18 02:15:44;;;;;;;20.68;15.80;;;;;;;10.92;54.56;100947.31;1779277;79;21191;-66
2020/12/18 02:18:19;;;;;;;19.82;15.20;;;;;;;10.91;54.57;100939.47;1761063;80;21651;-65
2020/12/18 02:20:47;;;;;;;20.62;16.42;;;;;;;10.90;54.59;100941.30;1772188;80;21150;-66
2020/12/18 02:23:14;;;;;;;20.90;15.28;;;;;;;10.90;54.58;100939.14;1774383;80;21163;-66
2020/12/18 02:25:43;;;;;;;20.60;15.13;;;;;;;10.89;54.60;100934.29;1762300;80;21132;-65
2020/12/18 02:28:12;;;;;;;20.52;16.27;;;;;;;10.89;54.58;100939.61;1765050;80;23549;-67
2020/12/18 02:30:40;;;;;;;20.12;14.95;;;;;;;10.88;54.58;100935.28;1762003;80;21012;-66
2020/12/18 02:33:09;;;;;;;20.82;15.93;;;;;;;10.87;54.60;100932.27;1778979;80;21170;-65
2020/12/18 02:35:38;;;;;;;19.10;15.25;;;;;;;10.88;54.55;100939.27;1772601;80;21159;-65
2020/12/18 02:38:06;;;;;;;20.35;15.28;;;;;;;10.87;54.55;100938.91;1762192;80;21115;-66
2020/12/18 02:40:35;;;;;;;18.87;15.15;;;;;;;10.86;54.56;100937.25;1762105;80;21632;-66
2020/12/18 02:43:13;;;;;;;17.17;13.72;;;;;;;10.87;54.55;100938.08;1787929;80;21655;-65
2020/12/18 02:45:41;;;;;;;20.37;15.23;;;;;;;10.85;54.55;100936.88;1779114;80;21200;-65
2020/12/18 02:48:21;;;;;;;17.25;13.32;;;;;;;10.90;54.56;100936.48;1802625;79;28199;-65
2020/12/18 02:50:52;;;;;;;17.98;14.23;;;;;;;10.85;54.54;100936.88;1813918;79;21154;-64
2020/12/18 02:53:23;;;;;;;18.87;14.80;;;;;;;10.84;54.53;100935.22;1813918;79;21253;-65
2020/12/18 02:56:13;;;;;;;17.35;13.55;;;;;;;10.88;54.53;100929.14;1817271;77;28688;-65
2020/12/18 02:58:54;;;;;;;17.62;14.68;;;;;;;10.84;54.53;100937.88;1815142;78;21128;-64
2020/12/18 03:01:22;;;;;;;17.65;13.55;;;;;;;10.81;54.55;100941.63;1820379;78;21360;-66
2020/12/18 03:03:50;;;;;;;19.95;15.05;;;;;;;10.81;54.52;100939.48;1809070;78;20991;-65
2020/12/18 03:06:22;;;;;;;17.77;14.93;;;;;;;10.80;54.54;100937.31;1783400;78;21187;-65
2020/12/18 03:08:52;;;;;;;17.95;14.00;;;;;;;10.80;54.54;100939.14;1777259;78;21143;-64
2020/12/18 03:11:19;;;;;;;18.87;14.13;;;;;;;10.79;54.52;100937.45;1779501;78;21135;-65
2020/12/18 03:13:47;;;;;;;18.45;13.70;;;;;;;10.79;54.55;100937.45;1799955;78;21345;-65
2020/12/18 03:16:15;;;;;;;18.90;14.30;;;;;;;10.78;54.53;100941.94;1783106;78;21170;-64
2020/12/18 03:18:55;;;;;;;19.85;13.50;;;;;;;10.81;54.52;100927.02;1764473;79;28159;-65
2020/12/18 03:21:23;;;;;;;16.67;12.53;;;;;;;10.77;54.49;100933.59;1702902;82;21143;-65
2020/12/18 03:24:00;;;;;;;17.12;13.30;;;;;;;10.80;54.51;100933.33;1774792;79;28280;-65
2020/12/18 03:26:33;;;;;;;17.62;13.22;;;;;;;10.76;54.50;100934.59;1719661;82;21172;-65
2020/12/18 03:29:02;;;;;;;16.62;12.82;;;;;;;10.75;54.50;100940.88;1735482;82;21346;-65
2020/12/18 03:31:29;;;;;;;17.70;13.98;;;;;;;10.75;54.50;100938.71;1759910;80;21122;-65
2020/12/18 03:33:57;;;;;;;18.12;13.55;;;;;;;10.74;54.48;100947.19;1767485;81;21193;-65
2020/12/18 03:36:26;;;;;;;17.77;13.48;;;;;;;10.75;54.46;100944.03;1753618;81;21156;-65
2020/12/18 03:38:55;;;;;;;17.50;14.00;;;;;;;10.74;54.46;100942.34;1765625;81;21201;-65
2020/12/18 03:41:24;;;;;;;17.00;13.18;;;;;;;10.74;54.48;100939.21;1745522;81;21610;-65
2020/12/18 03:43:52;;;;;;;17.10;13.20;;;;;;;10.73;54.47;100944.16;1766417;81;21184;-65
2020/12/18 03:46:20;;;;;;;17.57;13.48;;;;;;;10.73;54.45;100944.16;1765689;81;21101;-65
2020/12/18 03:49:06;;;;;;;15.50;12.25;;;;;;;10.73;54.45;100947.31;1749110;81;21150;-65
2020/12/18 03:51:46;;;;;;;16.65;12.93;;;;;;;10.77;54.44;100950.05;1791664;78;28200;-65
2020/12/18 03:54:15;;;;;;;14.40;11.48;;;;;;;10.72;54.43;100948.28;1762965;80;21187;-65
2020/12/18 03:57:32;;;;;;;16.23;13.28;;;;;;;10.76;54.46;100945.23;1775754;79;28273;-65
2020/12/18 04:00:08;;;;;;;16.73;13.05;;;;;;;10.70;54.42;100943.59;1746166;82;21161;-64
2020/12/18 04:02:43;;;;;;;14.50;12.28;;;;;;;10.70;54.42;100939.61;1723353;82;21197;-65
2020/12/18 04:05:11;;;;;;;15.55;12.13;;;;;;;10.69;54.40;100934.80;1726107;82;21127;-66
2020/12/18 04:07:40;;;;;;;14.23;11.15;;;;;;;10.68;54.39;100934.46;1728626;82;21174;-66
2020/12/18 04:10:09;;;;;;;15.53;12.60;;;;;;;10.67;54.42;100938.08;1806471;79;21178;-66
2020/12/18 04:12:38;;;;;;;16.48;12.10;;;;;;;10.68;54.41;100937.12;1789679;79;21682;-66
2020/12/18 04:15:06;;;;;;;14.78;11.60;;;;;;;10.68;54.38;100937.12;1797232;79;23576;-65
2020/12/18 04:17:38;;;;;;;16.95;12.53;;;;;;;10.68;54.40;100933.59;1793080;79;21190;-66
2020/12/18 04:20:08;;;;;;;13.43;10.43;;;;;;;10.67;54.38;100928.78;1811522;79;21137;-65
2020/12/18 04:22:36;;;;;;;13.95;11.57;;;;;;;10.66;54.38;100928.91;1794833;79;21183;-65
2020/12/18 04:25:06;;;;;;;13.98;10.30;;;;;;;10.67;54.36;100930.61;1796284;79;21189;-65
2020/12/18 04:27:35;;;;;;;14.83;11.50;;;;;;;10.67;54.35;100935.42;1800910;79;21371;-65
2020/12/18 04:30:04;;;;;;;14.73;10.85;;;;;;;10.67;54.35;100935.92;1813043;79;21158;-65
2020/12/18 04:32:32;;;;;;;12.03;9.98;;;;;;;10.65;54.34;100932.06;1776903;79;21142;-65
2020/12/18 04:34:59;;;;;;;13.95;10.60;;;;;;;10.65;54.32;100937.38;1782357;79;21118;-64
2020/12/18 04:37:34;;;;;;;13.53;10.60;;;;;;;10.66;54.29;100931.57;1777055;79;21450;-64
2020/12/18 04:40:15;;;;;;;12.65;10.53;;;;;;;10.69;54.29;100933.96;1803268;77;28809;-66
2020/12/18 04:42:59;;;;;;;12.20;9.60;;;;;;;10.63;54.27;100935.36;1785696;77;21537;-65
2020/12/18 04:45:27;;;;;;;11.48;9.73;;;;;;;10.62;54.32;100932.33;1749543;81;21415;-65
2020/12/18 04:47:55;;;;;;;12.88;9.75;;;;;;;10.61;54.31;100937.31;1760863;79;21174;-65
2020/12/18 04:50:25;;;;;;;10.95;9.18;;;;;;;10.61;54.30;100935.48;1799925;79;21012;-66
2020/12/18 04:53:08;;;;;;;11.90;9.93;;;;;;;10.65;54.31;100940.04;1817043;77;28333;-65
2020/12/18 04:55:37;;;;;;;11.73;9.78;;;;;;;10.60;54.28;100944.45;1786983;78;21135;-64
2020/12/18 04:58:22;;;;;;;13.58;9.28;;;;;;;10.60;54.29;100940.94;1759001;78;21463;-65
2020/12/18 05:00:56;;;;;;;10.03;8.83;;;;;;;10.60;54.30;100943.59;1782957;78;21203;-64
2020/12/18 05:03:40;;;;;;;10.72;9.48;;;;;;;10.62;54.31;100937.65;1788757;78;28214;-65
2020/12/18 05:06:09;;;;;;;11.43;9.23;;;;;;;10.58;54.31;100946.38;1777901;80;21116;-65
2020/12/18 05:08:36;;;;;;;9.78;8.05;;;;;;;10.58;54.31;100952.20;1760034;81;21364;-66
2020/12/18 05:11:24;;;;;;;10.40;9.00;;;;;;;10.58;54.27;100945.05;1781915;79;21198;-65
2020/12/18 05:13:55;;;;;;;10.28;9.03;;;;;;;10.58;54.27;100946.88;1807704;79;21642;-65
2020/12/18 05:16:25;;;;;;;11.40;9.25;;;;;;;10.56;54.27;100942.20;1810446;79;21628;-65
2020/12/18 05:19:04;;;;;;;10.70;8.25;;;;;;;10.55;54.32;100944.52;1772001;79;21143;-64
2020/12/18 05:21:35;;;;;;;10.70;8.95;;;;;;;10.55;54.29;100945.84;1793338;78;21407;-64
2020/12/18 05:24:04;;;;;;;10.45;8.55;;;;;;;10.54;54.29;100950.80;1804401;78;21234;-65
2020/12/18 05:26:36;;;;;;;9.00;8.03;;;;;;;10.53;54.27;100955.28;1806348;78;21214;-66
2020/12/18 05:29:09;;;;;;;10.10;8.75;;;;;;;10.53;54.24;100956.61;1786677;79;21117;-66
2020/12/18 05:32:07;;;;;;;9.35;8.00;;;;;;;10.58;54.25;100948.20;1736244;79;28724;-67
2020/12/18 05:34:38;;;;;;;10.28;8.13;;;;;;;10.52;54.27;100952.26;1705993;82;21175;-67
2020/12/18 05:37:07;;;;;;;10.28;8.33;;;;;;;10.51;54.24;100957.23;1680580;83;21386;-66
2020/12/18 05:39:50;;;;;;;10.45;7.90;;;;;;;10.54;54.26;100955.61;1803627;78;28228;-66
2020/12/18 05:42:20;;;;;;;10.75;8.98;;;;;;;10.51;54.25;100955.91;1756811;80;21139;-67
2020/12/18 05:44:48;;;;;;;10.55;8.65;;;;;;;10.51;54.24;100957.73;1774805;78;21355;-66
2020/12/18 05:47:20;;;;;;;10.72;8.20;;;;;;;10.52;54.24;100964.71;1798467;78;21163;-66
2020/12/18 05:49:48;;;;;;;11.00;9.25;;;;;;;10.51;54.24;100963.88;1779793;78;21124;-65
2020/12/18 05:52:34;;;;;;;11.25;8.68;;;;;;;10.55;54.25;100963.12;1755308;79;28205;-65
2020/12/18 05:55:04;;;;;;;10.40;8.15;;;;;;;10.51;54.22;100963.05;1720320;82;21181;-67
2020/12/18 05:57:36;;;;;;;10.00;8.53;;;;;;;10.50;54.21;100967.50;1704204;82;21390;-65
2020/12/18 06:00:05;;;;;;;9.33;8.15;;;;;;;10.51;54.22;100964.38;1765982;80;21639;-66
2020/12/18 06:03:03;;;;;;;9.83;8.15;;;;;;;10.51;54.20;100969.69;1741364;81;21618;-65
2020/12/18 06:05:38;;;;;;;9.68;7.53;;;;;;;10.53;54.20;100968.56;1803402;78;29232;-65
2020/12/18 06:08:18;;;;;;;10.35;7.95;;;;;;;10.49;54.19;100968.95;1779547;78;21184;-67
2020/12/18 06:10:48;;;;;;;9.90;7.78;;;;;;;10.49;54.20;100971.62;1790497;78;21296;-67
2020/12/18 06:13:29;;;;;;;10.25;7.62;;;;;;;10.52;54.23;100968.20;1773341;79;28225;-65
2020/12/18 06:15:59;;;;;;;9.43;7.75;;;;;;;10.48;54.20;100969.45;1722449;82;21176;-66
2020/12/18 06:18:28;;;;;;;11.22;8.00;;;;;;;10.48;54.21;100973.94;1715634;82;21365;-66
2020/12/18 06:20:55;;;;;;;9.25;7.35;;;;;;;10.48;54.19;100975.27;1735378;81;21182;-66
2020/12/18 06:23:23;;;;;;;11.12;8.60;;;;;;;10.48;54.20;100977.42;1731398;81;21142;-66
2020/12/18 06:26:06;;;;;;;10.13;8.08;;;;;;;10.52;54.18;100976.67;1813567;77;28106;-65
2020/12/18 06:28:44;;;;;;;9.88;8.65;;;;;;;10.48;54.13;100982.73;1764384;79;21146;-65
2020/12/18 06:31:25;;;;;;;10.85;8.48;;;;;;;10.47;54.18;100978.42;1760312;79;21360;-67
2020/12/18 06:34:28;;;;;;;9.33;7.70;;;;;;;10.48;54.12;100981.91;1771345;78;21016;-65
2020/12/18 06:37:31;;;;;;;9.13;7.78;;;;;;;10.47;54.13;100985.52;1770205;78;21610;-65
2020/12/18 06:40:00;;;;;;;11.95;8.70;;;;;;;10.44;54.15;100985.33;1771173;78;21193;-67
2020/12/18 06:42:44;;;;;;;10.60;8.13;;;;;;;10.47;54.20;100983.73;1759108;79;28773;-66
2020/12/18 06:45:16;;;;;;;11.93;8.50;;;;;;;10.43;54.20;100984.48;1731472;82;21587;-66
2020/12/18 06:47:58;;;;;;;9.63;7.95;;;;;;;10.43;54.17;100988.48;1739811;82;21488;-66
2020/12/18 06:50:44;;;;;;;9.05;7.70;;;;;;;10.43;54.15;100989.80;1745584;81;21186;-66
2020/12/18 06:53:31;;;;;;;10.72;8.55;;;;;;;10.41;54.17;100986.91;1747466;80;21197;-65
2020/12/18 06:56:01;;;;;;;8.28;7.25;;;;;;;10.41;54.22;100987.77;1749390;81;21202;-66
2020/12/18 06:58:34;;;;;;;9.98;8.38;;;;;;;10.41;54.22;100986.91;1741463;81;21158;-66
2020/12/18 07:01:02;;;;;;;8.95;7.60;;;;;;;10.42;54.18;100985.45;1751908;81;21201;-66
2020/12/18 07:03:46;;;;;;;9.50;7.65;;;;;;;10.42;54.18;100984.12;1750651;81;21238;-65
2020/12/18 07:06:27;;;;;;;10.50;7.83;;;;;;;10.43;54.19;100981.84;1747764;81;21212;-65
2020/12/18 07:08:56;;;;;;;9.35;7.87;;;;;;;10.43;54.13;100980.50;1743376;81;21164;-64
2020/12/18 07:11:23;;;;;;;9.93;7.60;;;;;;;10.43;54.10;100986.31;1765730;81;21462;-65
2020/12/18 07:14:01;;;;;;;11.03;8.55;;;;;;;10.47;54.11;100984.20;1740467;79;28797;-70
2020/12/18 07:16:29;;;;;;;10.32;8.05;;;;;;;10.43;54.08;100991.13;1706180;82;21214;-68
2020/12/18 07:18:58;;;;;;;9.60;7.62;;;;;;;10.45;54.08;100983.50;1718503;82;21386;-68
2020/12/18 07:21:25;;;;;;;8.98;7.60;;;;;;;10.43;54.07;100979.18;1777017;80;21153;-68
2020/12/18 07:23:52;;;;;;;9.98;8.43;;;;;;;10.45;54.07;100981.70;1766182;79;21175;-67
2020/12/18 07:26:20;;;;;;;9.60;7.67;;;;;;;10.46;54.05;100979.87;1736905;82;21186;-68
2020/12/18 07:28:47;;;;;;;9.60;8.10;;;;;;;10.47;54.02;100986.39;1764739;81;21147;-68
2020/12/18 07:31:23;;;;;;;11.30;8.85;;;;;;;10.48;53.99;100987.22;1770360;81;22123;-68
2020/12/18 07:33:57;;;;;;;9.23;7.78;;;;;;;10.48;53.97;100996.02;1760280;81;21630;-67
2020/12/18 07:36:29;;;;;;;9.95;7.92;;;;;;;10.48;53.95;100992.53;1755757;81;21118;-68
2020/12/18 07:38:57;;;;;;;9.53;7.78;;;;;;;10.48;53.97;100987.22;1760989;81;21172;-69
2020/12/18 07:41:26;;;;;;;9.65;8.03;;;;;;;10.47;53.95;100985.06;1740584;81;21123;-69
2020/12/18 07:43:54;;;;;;;11.12;8.33;;;;;;;10.47;53.95;100979.75;1753298;81;21424;-68
2020/12/18 07:46:22;;;;;;;10.13;8.05;;;;;;;10.47;53.92;100988.18;1682406;81;21222;-68
2020/12/18 07:48:49;;;;;;;9.78;8.43;;;;;;;10.47;53.91;100987.72;1761057;81;21144;-70
2020/12/18 07:51:21;;;;;;;9.98;8.05;;;;;;;10.48;53.91;100987.22;1756830;81;22237;-69
2020/12/18 07:53:55;;;;;;;9.70;8.07;;;;;;;10.48;53.86;100989.38;1755559;81;21122;-71
2020/12/18 07:56:22;;;;;;;;;;;;;;;10.50;54.53;100995.89;1752951;81;21394;-69
2020/12/18 07:58:57;;;;;;;13.70;8.93;;;;;;;10.54;55.61;100988.00;1748963;81;20275;-70
2020/12/18 08:01:27;;;;;;;11.93;9.33;;;;;;;10.52;57.06;100987.30;1736696;81;21233;-69
2020/12/18 08:03:58;;;;;;;12.90;9.08;;;;;;;10.54;57.42;100991.48;1740025;81;21146;-71
2020/12/18 08:06:28;;;;;;;12.10;8.95;;;;;;;10.59;57.41;100993.75;1743834;81;21594;-68
2020/12/18 08:09:01;;;;;;;13.30;8.50;;;;;;;10.61;57.27;100993.13;1748442;81;21372;-70
2020/12/18 08:11:30;;;;;;;14.33;8.65;;;;;;;10.61;57.12;100994.45;1739218;81;21187;-67
2020/12/18 08:13:59;;;;;;;12.15;8.63;;;;;;;10.62;56.89;100994.31;1713861;82;21147;-70
2020/12/18 08:16:29;;;;;;;12.25;9.35;;;;;;;10.62;56.71;101003.62;1716471;82;21146;-68
2020/12/18 08:19:01;;;;;;;13.50;9.25;;;;;;;10.62;56.56;100996.97;1708123;82;21143;-68
2020/12/18 08:21:42;;;;;;;12.98;10.10;;;;;;;10.62;56.40;101002.29;1724922;82;22237;-67
2020/12/18 08:24:30;;;;;;;11.93;9.15;;;;;;;10.63;56.27;100993.82;1721788;81;21182;-68
2020/12/18 08:27:17;;;;;;;11.95;9.45;;;;;;;10.64;56.12;100990.17;1695287;82;21173;-69
2020/12/18 08:29:45;;;;;;;13.62;9.50;;;;;;;10.63;55.98;100988.50;1681376;82;21155;-68
2020/12/18 08:32:19;;;;;;;13.05;10.18;;;;;;;10.62;55.88;100992.98;1716571;82;21617;-69
2020/12/18 08:34:49;;;;;;;12.45;9.35;;;;;;;10.62;55.77;100985.48;1720664;82;21404;-71
2020/12/18 08:37:22;;;;;;;12.18;9.58;;;;;;;10.62;55.61;100992.13;1715447;82;21157;-70
2020/12/18 08:39:50;;;;;;;;;;;;;;;10.63;55.51;100989.84;1715028;82;21158;-68
2020/12/18 08:42:17;;;;;;;14.60;10.40;;;;;;;10.63;55.38;100979.20;1711835;82;20266;-73
2020/12/18 08:44:44;;;;;;;12.60;9.80;;;;;;;10.55;55.45;100979.06;1717863;81;21369;-69
2020/12/18 08:47:22;;;;;;;13.48;10.28;;;;;;;10.52;55.36;100972.68;1712069;83;21389;-68
2020/12/18 08:49:51;;;;;;;12.00;10.23;;;;;;;10.56;55.29;100980.23;1715306;80;21173;-68
2020/12/18 08:52:27;;;;;;;13.03;10.23;;;;;;;10.56;55.17;100980.23;1725672;82;21205;-77
2020/12/18 08:55:04;;;;;;;12.55;9.65;;;;;;;10.58;55.07;100991.55;1732812;82;21767;-69
2020/12/18 08:57:32;;;;;;;13.58;9.85;;;;;;;10.58;55.01;100978.77;1742236;82;21181;-67
2020/12/18 09:00:14;;;;;;;14.95;9.25;;;;;;;10.57;54.92;100973.13;1723273;82;21347;-70
2020/12/18 09:02:54;;;;;;;12.10;9.60;;;;;;;10.56;54.87;100964.28;1709686;82;21170;-71
2020/12/18 09:05:33;;;;;;;13.58;9.85;;;;;;;10.58;54.82;100967.64;1727130;82;21629;-73
2020/12/18 09:08:08;;;;;;;13.68;9.75;;;;;;;10.57;54.80;100967.80;1716943;82;21654;-71
2020/12/18 09:10:54;;;;;;;12.60;9.98;;;;;;;10.58;54.72;100963.66;1714253;83;21208;-70
2020/12/18 09:13:24;;;;;;;12.60;9.23;;;;;;;10.59;54.66;100961.86;1738448;80;21382;-70
2020/12/18 09:16:03;;;;;;;12.50;9.03;;;;;;;10.59;54.59;100963.19;1754171;81;21590;-70
2020/12/18 09:18:36;;;;;;;11.03;9.45;;;;;;;10.57;54.53;100958.50;1718222;83;21215;-71
2020/12/18 09:21:15;;;;;;;12.13;8.65;;;;;;;10.56;54.49;100956.81;1752693;81;21611;-72
2020/12/18 09:23:46;;;;;;;11.00;8.98;;;;;;;10.58;54.48;100961.50;1709558;82;21130;-72
2020/12/18 09:26:25;;;;;;;16.17;9.25;;;;;;;10.57;54.46;100953.19;1741671;81;21204;-71
2020/12/18 09:28:52;;;;;;;13.72;9.20;;;;;;;10.58;54.41;100950.87;1750644;80;21645;-73
2020/12/18 09:31:19;;;;;;;10.45;8.90;;;;;;;10.58;54.35;100944.22;1721324;83;21155;-71
2020/12/18 09:33:47;;;;;;;11.95;9.25;;;;;;;10.59;54.31;100936.12;1754250;81;21174;-71
2020/12/18 09:36:16;;;;;;;12.00;9.50;;;;;;;10.60;54.29;100936.95;1719748;83;21167;-72
2020/12/18 09:38:49;;;;;;;11.10;9.03;;;;;;;10.62;54.25;100934.98;1724941;82;22253;-73
2020/12/18 09:41:19;;;;;;;13.30;9.18;;;;;;;10.66;54.25;100930.24;1756487;81;21179;-71
2020/12/18 09:43:47;;;;;;;12.20;9.60;;;;;;;10.68;54.17;100930.47;1755217;81;21178;-72
2020/12/18 09:46:15;;;;;;;12.20;9.55;;;;;;;10.69;54.12;100929.48;1757450;81;21173;-70
2020/12/18 09:48:45;;;;;;;10.53;7.95;;;;;;;10.72;54.08;100934.53;1712968;83;21199;-74
2020/12/18 09:51:13;;;;;;;12.18;9.55;;;;;;;10.72;54.05;100923.89;1734593;80;21368;-71
2020/12/18 09:53:40;;;;;;;12.43;8.93;;;;;;;10.74;53.99;100930.38;1711334;83;21251;-71
2020/12/18 09:56:10;;;;;;;10.98;8.90;;;;;;;10.76;53.92;100932.44;1740110;81;21198;-71
2020/12/18 09:58:38;;;;;;;11.33;8.75;;;;;;;10.79;53.91;100926.81;1704697;83;21174;-74
2020/12/18 10:01:05;;;;;;;11.28;8.65;;;;;;;10.79;53.85;100926.31;1702614;83;21206;-73
2020/12/18 10:03:32;;;;;;;10.90;8.33;;;;;;;10.81;53.78;100925.69;1756775;81;21150;-72
2020/12/18 10:06:00;;;;;;;11.20;8.95;;;;;;;10.82;53.74;100926.05;1758168;80;22084;-73
2020/12/18 10:08:29;;;;;;;11.90;8.40;;;;;;;10.83;53.70;100934.86;1748533;81;21595;-71
2020/12/18 10:10:56;;;;;;;9.68;7.80;;;;;;;10.86;53.65;100933.75;1704646;83;21249;-76
2020/12/18 10:13:24;;;;;;;11.35;8.13;;;;;;;10.86;53.58;100931.93;1707758;83;21192;-73
2020/12/18 10:15:51;;;;;;;11.28;8.73;;;;;;;10.87;53.56;100925.62;1718834;83;21450;-74
2020/12/18 10:18:19;;;;;;;10.53;8.53;;;;;;;10.87;53.52;100927.44;1709152;82;21187;-72
2020/12/18 10:20:46;;;;;;;11.25;8.15;;;;;;;10.89;53.45;100926.81;1746950;80;21130;-71
2020/12/18 10:23:13;;;;;;;9.53;8.28;;;;;;;10.90;53.46;100925.34;1767089;80;21654;-71
2020/12/18 10:25:42;;;;;;;10.93;8.55;;;;;;;10.90;53.42;100929.33;1763560;80;21190;-72
2020/12/18 10:28:10;;;;;;;9.73;7.83;;;;;;;10.91;53.35;100931.49;1767502;80;22278;-71
2020/12/18 10:30:38;;;;;;;11.53;8.23;;;;;;;10.92;53.33;100923.88;1747548;80;21169;-69
2020/12/18 10:33:05;;;;;;;9.80;8.13;;;;;;;10.91;53.30;100912.88;1770927;80;21065;-68
2020/12/18 10:35:33;;;;;;;10.55;7.92;;;;;;;10.93;53.26;100922.88;1763403;80;21170;-71
2020/12/18 10:38:00;;;;;;;10.23;8.10;;;;;;;10.92;53.23;100917.23;1718206;83;21150;-70
2020/12/18 10:40:28;;;;;;;10.80;8.50;;;;;;;10.92;53.20;100913.25;1710118;82;21394;-69
2020/12/18 10:42:55;;;;;;;10.95;9.00;;;;;;;10.91;53.20;100910.22;1719005;82;21206;-70
2020/12/18 10:45:23;;;;;;;9.78;7.90;;;;;;;10.92;53.17;100910.09;1725094;82;21212;-71
2020/12/18 10:47:50;;;;;;;11.05;8.10;;;;;;;10.91;53.16;100908.40;1726366;82;21608;-74
2020/12/18 10:50:17;;;;;;;11.03;8.50;;;;;;;10.91;53.11;100902.25;1720275;82;21142;-70
2020/12/18 10:52:47;;;;;;;9.43;7.97;;;;;;;10.91;53.13;100908.90;1732032;82;21366;-71
2020/12/18 10:55:14;;;;;;;11.28;7.87;;;;;;;10.91;53.10;100907.56;1727296;82;21224;-71
2020/12/18 10:57:42;;;;;;;10.72;8.28;;;;;;;10.90;53.06;100909.39;1718471;82;21150;-71
2020/12/18 11:00:09;;;;;;;8.93;7.80;;;;;;;10.90;53.06;100905.41;1728810;82;21159;-71
2020/12/18 11:02:37;;;;;;;9.65;7.78;;;;;;;10.91;53.05;100899.59;1723206;82;21157;-72
2020/12/18 11:05:04;;;;;;;9.40;7.40;;;;;;;10.91;53.00;100902.25;1717659;82;22269;-71
2020/12/18 11:07:32;;;;;;;9.90;8.38;;;;;;;10.91;52.97;100902.25;1727234;81;21162;-73
2020/12/18 11:10:01;;;;;;;10.43;8.45;;;;;;;10.91;52.96;100895.11;1754552;81;21182;-73
2020/12/18 11:12:29;;;;;;;9.63;7.83;;;;;;;10.90;52.99;100891.28;1719383;82;21180;-77
2020/12/18 11:14:57;;;;;;;11.45;8.50;;;;;;;10.90;52.97;100894.77;1718040;81;21217;-73
2020/12/18 11:17:24;;;;;;;9.43;7.35;;;;;;;10.91;52.95;100895.60;1702208;83;21380;-75
2020/12/18 11:19:51;;;;;;;9.80;7.83;;;;;;;10.90;52.95;100888.13;1710351;83;21196;-76
2020/12/18 11:22:18;;;;;;;10.82;8.73;;;;;;;10.91;52.91;100897.77;1727519;82;21174;-79
2020/12/18 11:24:46;;;;;;;8.88;7.67;;;;;;;10.90;52.95;100896.10;1723287;82;21161;-80
2020/12/18 11:27:15;;;;;;;9.28;7.78;;;;;;;10.90;52.88;100892.11;1710821;82;21230;-77
2020/12/18 11:29:42;;;;;;;10.48;8.70;;;;;;;10.90;52.88;100895.27;1718569;82;21243;-77
2020/12/18 11:32:09;;;;;;;9.73;8.08;;;;;;;10.90;52.88;100895.27;1711947;82;21178;-79
2020/12/18 11:34:36;;;;;;;10.18;8.00;;;;;;;10.89;52.85;100898.39;1720268;82;21181;-83
2020/12/18 11:37:04;;;;;;;10.93;8.85;;;;;;;10.89;52.85;100893.08;1725010;82;21651;-83